Burlington Executive


Codes: CZBA/
Name: Burlington Executive
City: Burlington
Country: Canada
Elevation: 602 ft.
Website:
Wikipedia:

Photos at Burlington Executive


   Photos courtesy of SpottingLog. You can add your own sightings and photos by signing up for a free trial today.



No photos found.

Weather at Burlington Executive


Time (UTC)DescriptionTempratureWindCloud coverageVisibilityPressureHumidity
13-Jun-2024 03:00Overcast Clouds19°C7 mph, SW96%10000m1013hPa61%
13-Jun-2024 06:00Overcast Clouds19°C9 mph, SW97%10000m1013hPa59%
13-Jun-2024 09:00Overcast Clouds18°C11 mph, SW94%10000m1012hPa72%
13-Jun-2024 12:00Overcast Clouds19°C13 mph, SW95%10000m1011hPa72%
13-Jun-2024 15:00Overcast Clouds23°C13 mph, SW97%10000m1010hPa68%
13-Jun-2024 18:00Overcast Clouds26°C18 mph, SW89%10000m1009hPa58%
13-Jun-2024 21:00Light Rain26°C18 mph, SW36%10000m1008hPa63%
14-Jun-2024 00:00Scattered Clouds24°C13 mph, SW41%10000m1008hPa70%
14-Jun-2024 03:00Light Rain21°C7 mph, SW100%10000m1009hPa91%
14-Jun-2024 06:00Light Rain19°C7 mph, W85%10000m1010hPa95%
14-Jun-2024 09:00Broken Clouds16°C4 mph, NW74%10000m1010hPa69%
14-Jun-2024 12:00Broken Clouds17°C7 mph, NW75%10000m1013hPa65%
14-Jun-2024 15:00Broken Clouds21°C4 mph, N77%10000m1013hPa53%
14-Jun-2024 18:00Scattered Clouds24°C9 mph, N43%10000m1012hPa46%
14-Jun-2024 21:00Scattered Clouds23°C11 mph, N47%10000m1013hPa45%
15-Jun-2024 00:00Few Clouds19°C7 mph, N22%10000m1015hPa58%
15-Jun-2024 03:00Clear Sky14°C7 mph, NW0%10000m1017hPa81%
15-Jun-2024 06:00Clear Sky13°C4 mph, NW0%10000m1017hPa59%
15-Jun-2024 09:00Clear Sky12°C4 mph, N0%10000m1018hPa66%
15-Jun-2024 12:00Clear Sky14°C7 mph, NE0%10000m1020hPa66%
15-Jun-2024 15:00Clear Sky20°C4 mph, NE1%10000m1021hPa45%
15-Jun-2024 18:00Clear Sky22°C4 mph, E2%10000m1020hPa43%
15-Jun-2024 21:00Few Clouds22°C7 mph, SE23%10000m1019hPa45%
16-Jun-2024 00:00Broken Clouds17°C7 mph, SE54%10000m1020hPa56%
16-Jun-2024 03:00Overcast Clouds15°C2 mph, E100%10000m1021hPa63%
16-Jun-2024 06:00Overcast Clouds14°C4 mph, E100%10000m1020hPa73%
16-Jun-2024 09:00Overcast Clouds13°C2 mph, E100%10000m1021hPa75%
16-Jun-2024 12:00Overcast Clouds16°C4 mph, E99%10000m1021hPa57%
16-Jun-2024 15:00Overcast Clouds18°C4 mph, E100%10000m1020hPa50%
16-Jun-2024 18:00Overcast Clouds20°C7 mph, E100%10000m1019hPa52%
16-Jun-2024 21:00Light Rain17°C7 mph, E100%10000m1018hPa69%
17-Jun-2024 00:00Overcast Clouds17°C7 mph, E100%10000m1017hPa80%
17-Jun-2024 03:00Overcast Clouds15°C4 mph, NE100%10000m1015hPa85%
17-Jun-2024 06:00Light Rain16°C2 mph, S99%10000m1014hPa91%
17-Jun-2024 09:00Light Rain16°C4 mph, S100%10000m1013hPa97%
17-Jun-2024 12:00Overcast Clouds18°C2 mph, S100%9721m1014hPa97%
17-Jun-2024 15:00Overcast Clouds24°C7 mph, W92%10000m1013hPa83%
17-Jun-2024 18:00Broken Clouds30°C9 mph, W83%10000m1012hPa59%
17-Jun-2024 21:00Light Rain30°C9 mph, W87%10000m1012hPa61%
18-Jun-2024 00:00Light Rain27°C9 mph, SW62%10000m1013hPa80%